createdAt,value
2018-04-30T00:00:53.775Z,16.30
2018-04-30T00:03:20.628Z,16.20
2018-04-30T00:05:46.709Z,16.20
2018-04-30T00:08:12.838Z,16.20
2018-04-30T00:10:38.950Z,16.20
2018-04-30T00:13:05.789Z,16.20
2018-04-30T00:15:32.920Z,16.10
2018-04-30T00:17:58.995Z,16.10
2018-04-30T00:20:25.111Z,16.10
2018-04-30T00:22:51.207Z,16.00
2018-04-30T00:25:18.031Z,16.00
2018-04-30T00:27:44.148Z,16.00
2018-04-30T00:30:10.323Z,16.10
2018-04-30T00:32:37.179Z,16.00
2018-04-30T00:35:04.071Z,16.00
2018-04-30T00:37:30.134Z,15.90
2018-04-30T00:39:56.215Z,16.00
2018-04-30T00:42:23.253Z,16.00
2018-04-30T00:44:49.422Z,16.00
2018-04-30T00:47:16.238Z,16.00
2018-04-30T00:49:42.379Z,15.90
2018-04-30T00:52:08.463Z,16.00
2018-04-30T00:54:47.055Z,16.00
2018-04-30T00:57:13.131Z,15.90
2018-04-30T00:59:39.212Z,15.90
2018-04-30T01:02:05.359Z,16.00
2018-04-30T01:04:31.448Z,16.00
2018-04-30T01:06:57.574Z,16.10
2018-04-30T01:09:24.415Z,16.00
2018-04-30T01:11:51.249Z,16.00
2018-04-30T01:14:17.348Z,16.00
2018-04-30T01:16:43.476Z,16.00
2018-04-30T01:19:09.566Z,16.00
2018-04-30T01:21:35.655Z,16.00
2018-04-30T01:24:01.784Z,16.00
2018-04-30T01:26:27.861Z,16.00
2018-04-30T01:28:53.941Z,16.00
2018-04-30T01:31:20.788Z,16.00
2018-04-30T01:33:47.626Z,16.00
2018-04-30T01:36:13.690Z,15.90
2018-04-30T01:38:40.527Z,15.90
2018-04-30T01:41:06.609Z,15.90
2018-04-30T01:43:32.668Z,15.90
2018-04-30T01:45:58.804Z,15.80
2018-04-30T01:48:24.875Z,15.80
2018-04-30T01:50:51.681Z,15.80
2018-04-30T01:53:17.766Z,15.80
2018-04-30T01:55:43.840Z,15.80
2018-04-30T01:58:09.906Z,15.80
2018-04-30T02:00:36.062Z,15.70
2018-04-30T02:03:02.154Z,15.70
2018-04-30T02:05:28.228Z,15.70
2018-04-30T02:07:54.329Z,15.70
2018-04-30T02:10:20.391Z,15.60
2018-04-30T02:12:46.464Z,15.60
2018-04-30T02:15:12.560Z,15.60
2018-04-30T02:17:38.623Z,15.60
2018-04-30T02:20:04.694Z,15.50
2018-04-30T02:22:30.786Z,15.50
2018-04-30T02:24:56.854Z,15.50
2018-04-30T02:27:22.918Z,15.40
2018-04-30T02:29:49.016Z,15.40
2018-04-30T02:32:15.065Z,15.40
2018-04-30T02:34:41.905Z,15.40
2018-04-30T02:37:08.024Z,15.30
2018-04-30T02:39:34.108Z,15.30
2018-04-30T02:42:00.926Z,15.30
2018-04-30T02:44:27.018Z,15.20
2018-04-30T02:46:53.097Z,15.20
2018-04-30T02:49:19.174Z,15.20
2018-04-30T02:51:46.019Z,15.10
2018-04-30T02:54:12.821Z,15.10
2018-04-30T02:56:38.882Z,15.00
2018-04-30T02:59:04.998Z,15.10
2018-04-30T03:01:31.068Z,15.00
2018-04-30T03:03:57.125Z,15.00
2018-04-30T03:06:24.003Z,15.00
2018-04-30T03:08:50.082Z,14.90
2018-04-30T03:11:16.181Z,14.90
2018-04-30T03:13:42.273Z,14.90
2018-04-30T03:16:08.334Z,14.90
2018-04-30T03:18:35.175Z,14.80
2018-04-30T03:21:01.274Z,14.80
2018-04-30T03:23:27.336Z,14.80
2018-04-30T03:25:53.404Z,14.70
2018-04-30T03:28:20.265Z,14.70
2018-04-30T03:30:47.067Z,14.70
2018-04-30T03:33:13.132Z,14.70
2018-04-30T03:35:39.280Z,14.70
2018-04-30T03:38:06.104Z,14.60
2018-04-30T03:40:32.172Z,14.60
2018-04-30T03:42:59.003Z,14.50
2018-04-30T03:45:25.062Z,14.50
2018-04-30T03:47:51.862Z,14.50
2018-04-30T03:50:17.979Z,14.50
2018-04-30T03:52:44.057Z,14.50
2018-04-30T03:55:10.119Z,14.50
2018-04-30T03:57:36.218Z,14.50
2018-04-30T04:00:02.301Z,14.50
2018-04-30T04:02:41.670Z,14.40
2018-04-30T04:05:20.114Z,14.40
2018-04-30T04:07:46.215Z,14.40
2018-04-30T04:10:13.031Z,14.40
2018-04-30T04:12:39.152Z,14.30
2018-04-30T04:15:05.960Z,14.40
2018-04-30T04:17:32.762Z,14.30
2018-04-30T04:19:58.846Z,14.30
2018-04-30T04:22:24.910Z,14.30
2018-04-30T04:24:50.978Z,14.30
2018-04-30T04:27:17.075Z,14.30
2018-04-30T04:29:43.879Z,14.30
2018-04-30T04:32:09.971Z,14.20
2018-04-30T04:34:36.777Z,14.30
2018-04-30T04:37:02.870Z,14.30
2018-04-30T04:39:28.946Z,14.40
2018-04-30T04:41:55.010Z,14.40
2018-04-30T04:44:21.107Z,14.40
2018-04-30T04:46:47.170Z,14.40
2018-04-30T04:49:13.236Z,14.50
2018-04-30T04:51:40.059Z,14.50
2018-04-30T04:54:06.125Z,14.50
2018-04-30T04:56:32.965Z,14.70
2018-04-30T04:58:59.019Z,14.60
2018-04-30T05:01:25.843Z,14.80
2018-04-30T05:03:51.930Z,14.70
2018-04-30T05:06:17.995Z,14.80
2018-04-30T05:08:44.083Z,15.00
2018-04-30T05:11:10.911Z,15.10
2018-04-30T05:13:36.979Z,15.10
2018-04-30T05:16:03.818Z,15.40
2018-04-30T05:18:29.870Z,15.30
2018-04-30T05:20:56.711Z,15.20
2018-04-30T05:23:23.515Z,15.20
2018-04-30T05:25:49.590Z,15.20
2018-04-30T05:28:15.677Z,15.30
2018-04-30T05:30:41.735Z,15.20
2018-04-30T05:33:07.800Z,15.30
2018-04-30T05:35:33.899Z,15.40
2018-04-30T05:37:59.985Z,15.40
2018-04-30T05:40:26.062Z,15.50
2018-04-30T05:42:52.134Z,15.60
2018-04-30T05:45:18.198Z,15.90
2018-04-30T05:47:44.287Z,15.90
2018-04-30T05:50:10.357Z,15.90
2018-04-30T05:52:36.450Z,15.70
2018-04-30T05:55:02.515Z,15.70
2018-04-30T05:57:28.591Z,15.70
2018-04-30T05:59:55.416Z,15.70
2018-04-30T06:02:21.473Z,15.70
2018-04-30T06:04:47.601Z,15.90
2018-04-30T06:07:13.666Z,16.00
2018-04-30T06:09:40.466Z,16.60
2018-04-30T06:12:06.569Z,16.60
2018-04-30T06:14:32.649Z,17.10
2018-04-30T06:16:58.747Z,17.10
2018-04-30T06:19:24.821Z,17.50
2018-04-30T06:21:50.881Z,17.70
2018-04-30T06:24:17.007Z,17.90
2018-04-30T06:26:43.157Z,18.20
2018-04-30T06:29:09.962Z,18.70
2018-04-30T06:31:36.030Z,18.70
2018-04-30T06:34:02.106Z,19.10
2018-04-30T06:36:28.978Z,19.60
2018-04-30T06:38:55.040Z,19.50
2018-04-30T06:41:21.105Z,20.20
2018-04-30T06:43:47.230Z,20.60
2018-04-30T06:46:13.294Z,20.60
2018-04-30T06:48:39.369Z,20.50
2018-04-30T06:51:05.460Z,20.40
2018-04-30T06:53:31.567Z,21.00
2018-04-30T06:55:57.622Z,21.40
2018-04-30T06:58:23.729Z,21.60
2018-04-30T07:00:49.810Z,21.00
2018-04-30T07:03:15.877Z,20.90
2018-04-30T07:05:42.702Z,20.90
2018-04-30T07:08:08.777Z,20.90
2018-04-30T07:10:34.851Z,21.50
2018-04-30T07:13:00.934Z,21.80
2018-04-30T07:15:27.734Z,22.40
2018-04-30T07:17:53.810Z,22.40
2018-04-30T07:20:19.891Z,22.30
2018-04-30T07:22:45.951Z,22.40
2018-04-30T07:25:27.013Z,22.50
2018-04-30T07:27:53.169Z,22.70
2018-04-30T07:30:19.163Z,24.00
2018-04-30T07:32:46.013Z,24.90
2018-04-30T07:35:12.810Z,25.70
2018-04-30T07:37:38.918Z,25.70
2018-04-30T07:40:05.774Z,26.00
2018-04-30T07:42:32.574Z,24.90
2018-04-30T07:44:58.630Z,24.80
2018-04-30T07:47:24.734Z,25.40
2018-04-30T07:49:50.838Z,26.20
2018-04-30T07:52:17.643Z,26.90
2018-04-30T07:54:43.762Z,26.70
2018-04-30T07:57:09.855Z,26.50
2018-04-30T07:59:35.914Z,26.90
2018-04-30T08:02:02.038Z,27.00
2018-04-30T08:04:28.850Z,27.20
2018-04-30T08:06:54.920Z,27.20
2018-04-30T08:09:21.754Z,27.70
2018-04-30T08:11:47.851Z,27.60
2018-04-30T08:14:13.928Z,27.30
2018-04-30T08:16:40.046Z,26.80
2018-04-30T08:19:06.113Z,27.60
2018-04-30T08:21:32.368Z,28.10
2018-04-30T08:23:59.202Z,29.20
2018-04-30T08:26:25.271Z,29.20
2018-04-30T08:28:52.076Z,29.70
2018-04-30T08:31:18.194Z,29.60
2018-04-30T08:33:44.256Z,29.50
2018-04-30T08:36:10.338Z,29.10
2018-04-30T08:38:36.530Z,29.20
2018-04-30T08:41:02.619Z,29.40
2018-04-30T08:43:28.692Z,29.80
2018-04-30T08:45:55.610Z,30.10
2018-04-30T08:48:21.728Z,29.70
2018-04-30T08:50:48.538Z,30.70
2018-04-30T08:53:14.807Z,30.70
2018-04-30T08:55:41.711Z,30.30
2018-04-30T08:58:07.765Z,30.20
2018-04-30T09:00:33.919Z,30.60
2018-04-30T09:02:59.967Z,30.10
2018-04-30T09:05:26.039Z,30.70
2018-04-30T09:07:52.874Z,30.70
2018-04-30T09:10:18.947Z,30.70
2018-04-30T09:12:45.026Z,30.10
2018-04-30T09:15:11.111Z,31.50
2018-04-30T09:17:37.945Z,31.90
2018-04-30T09:20:04.035Z,31.90
2018-04-30T09:22:30.179Z,31.70
2018-04-30T09:24:56.270Z,30.40
2018-04-30T09:27:23.108Z,29.90
2018-04-30T09:29:49.226Z,29.90
2018-04-30T09:32:15.346Z,30.20
2018-04-30T09:34:41.493Z,30.40
2018-04-30T09:37:07.531Z,29.50
2018-04-30T09:39:33.733Z,29.10
2018-04-30T09:41:59.830Z,28.80
2018-04-30T09:44:25.900Z,28.70
2018-04-30T09:46:52.778Z,28.10
2018-04-30T09:49:18.926Z,28.10
2018-04-30T09:51:45.049Z,28.50
2018-04-30T09:54:11.159Z,27.70
2018-04-30T09:56:37.984Z,27.80
2018-04-30T09:59:04.076Z,27.70
2018-04-30T10:01:30.174Z,27.60
2018-04-30T10:03:56.255Z,27.80
2018-04-30T10:06:22.378Z,28.00
2018-04-30T10:08:48.495Z,27.50
2018-04-30T10:11:14.591Z,28.60
2018-04-30T10:13:40.702Z,27.80
2018-04-30T10:16:06.799Z,27.40
2018-04-30T10:18:32.912Z,26.20
2018-04-30T10:20:58.998Z,24.80
2018-04-30T10:23:25.876Z,23.90
2018-04-30T10:25:51.987Z,23.90
2018-04-30T10:28:18.811Z,23.40
2018-04-30T10:30:44.895Z,23.30
2018-04-30T10:33:10.954Z,23.10
2018-04-30T10:35:37.018Z,22.80
2018-04-30T10:38:03.154Z,22.60
2018-04-30T10:40:29.270Z,22.70
2018-04-30T10:42:55.342Z,22.60
2018-04-30T10:45:21.459Z,22.00
2018-04-30T10:47:47.623Z,22.00
2018-04-30T10:50:13.704Z,21.80
2018-04-30T10:52:46.793Z,21.80
2018-04-30T10:55:13.611Z,21.80
2018-04-30T10:57:39.674Z,21.80
2018-04-30T11:00:06.542Z,22.70
2018-04-30T11:02:32.646Z,22.70
2018-04-30T11:04:58.679Z,23.10
2018-04-30T11:07:24.805Z,23.30
2018-04-30T11:09:50.907Z,22.50
2018-04-30T11:12:16.974Z,21.70
2018-04-30T11:14:43.070Z,21.30
2018-04-30T11:17:09.163Z,20.90
2018-04-30T11:19:35.326Z,20.90
2018-04-30T11:22:02.126Z,20.80
2018-04-30T11:24:28.196Z,20.80
2018-04-30T11:26:54.281Z,20.80
2018-04-30T11:29:20.360Z,20.80
2018-04-30T11:31:46.451Z,20.90
2018-04-30T11:34:12.553Z,21.20
2018-04-30T11:36:38.608Z,21.50
2018-04-30T11:39:04.742Z,21.70
2018-04-30T11:41:30.850Z,21.40
2018-04-30T11:43:56.922Z,21.50
2018-04-30T11:46:23.052Z,22.00
2018-04-30T11:48:49.893Z,21.90
2018-04-30T11:51:15.999Z,21.80
2018-04-30T11:53:42.134Z,21.90
2018-04-30T11:56:08.234Z,21.80
2018-04-30T11:58:34.322Z,21.70
2018-04-30T12:01:00.426Z,22.00
2018-04-30T12:03:26.507Z,22.20
2018-04-30T12:05:52.590Z,21.90
2018-04-30T12:08:18.711Z,21.50
2018-04-30T12:10:44.814Z,21.50
2018-04-30T12:13:10.914Z,21.20
2018-04-30T12:15:37.014Z,21.10
2018-04-30T12:18:03.172Z,20.80
2018-04-30T12:20:29.286Z,20.80
2018-04-30T12:23:02.478Z,20.60
2018-04-30T12:25:29.321Z,19.90
2018-04-30T12:27:56.161Z,19.70
2018-04-30T12:30:22.277Z,19.60
2018-04-30T12:32:48.640Z,19.60
2018-04-30T12:35:14.723Z,19.80
2018-04-30T12:37:40.811Z,19.90
2018-04-30T12:40:06.923Z,20.20
2018-04-30T12:42:33.055Z,20.60
2018-04-30T12:44:59.183Z,20.50
2018-04-30T12:47:25.326Z,21.10
2018-04-30T12:49:51.481Z,22.20
2018-04-30T12:52:18.251Z,23.00
2018-04-30T12:54:44.359Z,22.90
2018-04-30T12:57:10.439Z,22.30
2018-04-30T12:59:36.534Z,22.30
2018-04-30T13:02:02.642Z,21.40
2018-04-30T13:04:29.490Z,22.80
2018-04-30T13:06:56.334Z,23.10
2018-04-30T13:09:22.437Z,23.00
2018-04-30T13:11:48.536Z,23.80
2018-04-30T13:14:14.628Z,24.70
2018-04-30T13:16:40.738Z,23.90
2018-04-30T13:19:06.802Z,23.70
2018-04-30T13:21:32.882Z,23.50
2018-04-30T13:23:59.014Z,23.90
2018-04-30T13:26:25.839Z,24.60
2018-04-30T13:28:51.958Z,24.60
2018-04-30T13:31:18.037Z,24.70
2018-04-30T13:33:44.860Z,24.90
2018-04-30T13:36:10.970Z,24.90
2018-04-30T13:38:37.042Z,25.20
2018-04-30T13:41:03.220Z,25.00
2018-04-30T13:43:30.200Z,24.80
2018-04-30T13:45:56.369Z,24.80
2018-04-30T13:48:22.471Z,24.70
2018-04-30T13:50:48.561Z,23.70
2018-04-30T13:53:14.690Z,23.50
2018-04-30T13:55:40.802Z,23.50
2018-04-30T13:58:06.890Z,23.20
2018-04-30T14:00:33.022Z,23.30
2018-04-30T14:02:59.118Z,23.00
2018-04-30T14:05:25.220Z,23.10
2018-04-30T14:07:52.055Z,22.60
2018-04-30T14:10:18.121Z,22.50
2018-04-30T14:12:45.188Z,22.70
2018-04-30T14:15:11.268Z,23.30
2018-04-30T14:17:37.398Z,23.60
2018-04-30T14:20:03.859Z,23.00
2018-04-30T14:22:29.936Z,23.00
2018-04-30T14:24:56.762Z,22.50
2018-04-30T14:27:22.840Z,22.50
2018-04-30T14:29:48.942Z,22.90
2018-04-30T14:32:15.036Z,23.30
2018-04-30T14:34:41.190Z,22.90
2018-04-30T14:37:07.419Z,23.20
2018-04-30T14:39:33.498Z,23.00
2018-04-30T14:41:59.602Z,23.30
2018-04-30T14:44:25.778Z,23.40
2018-04-30T14:46:51.836Z,23.50
2018-04-30T14:49:18.746Z,22.90
2018-04-30T14:51:44.919Z,22.80
2018-04-30T14:54:11.808Z,22.60
2018-04-30T14:56:37.907Z,22.70
2018-04-30T14:59:04.728Z,22.10
2018-04-30T15:01:30.823Z,22.10
2018-04-30T15:03:56.899Z,22.20
2018-04-30T15:06:23.034Z,22.60
2018-04-30T15:08:49.130Z,22.60
2018-04-30T15:11:15.211Z,22.80
2018-04-30T15:13:41.314Z,22.40
2018-04-30T15:16:07.435Z,22.40
2018-04-30T15:18:34.291Z,21.60
2018-04-30T15:21:01.125Z,21.00
2018-04-30T15:23:27.234Z,21.00
2018-04-30T15:25:53.379Z,20.80
2018-04-30T15:28:19.539Z,20.60
2018-04-30T15:30:45.644Z,20.30
2018-04-30T15:33:11.730Z,20.60
2018-04-30T15:35:38.678Z,20.10
2018-04-30T15:38:04.763Z,20.10
2018-04-30T15:40:30.885Z,20.00
2018-04-30T15:42:57.114Z,20.00
2018-04-30T15:45:23.962Z,20.40
2018-04-30T15:47:50.816Z,20.60
2018-04-30T15:50:17.645Z,20.40
2018-04-30T15:52:43.726Z,20.40
2018-04-30T15:55:09.858Z,20.30
2018-04-30T15:57:36.025Z,20.30
2018-04-30T16:00:02.363Z,20.30
2018-04-30T16:02:28.499Z,20.30
2018-04-30T16:04:54.790Z,20.30
2018-04-30T16:07:20.938Z,20.20
2018-04-30T16:09:48.055Z,20.10
2018-04-30T16:12:14.214Z,20.00
2018-04-30T16:14:40.295Z,19.90
2018-04-30T16:17:06.371Z,19.70
2018-04-30T16:19:32.497Z,19.70
2018-04-30T16:21:58.671Z,19.60
2018-04-30T16:24:24.714Z,19.60
2018-04-30T16:26:50.844Z,19.50
2018-04-30T16:29:16.932Z,19.20
2018-04-30T16:31:43.126Z,19.30
2018-04-30T16:34:09.278Z,19.40
2018-04-30T16:36:35.439Z,19.50
2018-04-30T16:39:01.576Z,19.70
2018-04-30T16:41:28.432Z,19.70
2018-04-30T16:44:02.327Z,19.60
2018-04-30T16:46:28.442Z,19.60
2018-04-30T16:51:48.316Z,19.60
2018-04-30T16:54:15.192Z,19.50
2018-04-30T16:56:41.398Z,19.50
2018-04-30T16:59:07.486Z,19.60
2018-04-30T17:01:33.603Z,19.50
2018-04-30T17:03:59.710Z,19.50
2018-04-30T17:06:25.811Z,19.50
2018-04-30T17:08:51.944Z,19.60
2018-04-30T17:11:18.059Z,19.70
2018-04-30T17:13:44.147Z,19.60
2018-04-30T17:16:10.267Z,19.40
2018-04-30T17:18:36.364Z,19.40
2018-04-30T17:21:02.545Z,19.10
2018-04-30T17:23:28.717Z,19.10
2018-04-30T17:25:54.835Z,19.10
2018-04-30T17:28:20.958Z,19.10
2018-04-30T17:30:47.060Z,19.00
2018-04-30T17:33:13.258Z,18.90
2018-04-30T17:35:39.409Z,18.90
2018-04-30T17:38:06.295Z,18.70
2018-04-30T17:40:32.416Z,18.70
2018-04-30T17:42:59.299Z,18.60
2018-04-30T17:45:26.398Z,18.60
2018-04-30T17:47:52.509Z,18.60
2018-04-30T17:50:18.709Z,18.50
2018-04-30T17:52:45.629Z,18.50
2018-04-30T17:55:12.108Z,18.50
2018-04-30T17:57:38.255Z,18.30
2018-04-30T18:00:04.414Z,18.30
2018-04-30T18:02:30.709Z,18.30
2018-04-30T18:04:56.918Z,18.20
2018-04-30T18:07:23.024Z,18.10
2018-04-30T18:09:49.192Z,18.00
2018-04-30T18:12:15.440Z,17.90
2018-04-30T18:14:41.589Z,17.80
2018-04-30T18:17:07.795Z,17.70
2018-04-30T18:19:33.929Z,17.70
2018-04-30T18:22:00.754Z,17.50
2018-04-30T18:24:27.652Z,17.40
2018-04-30T18:26:53.857Z,17.40
2018-04-30T18:29:20.022Z,17.30
2018-04-30T18:31:46.136Z,17.30
2018-04-30T18:34:12.985Z,17.10
2018-04-30T18:36:39.843Z,17.10
2018-04-30T18:39:06.663Z,17.10
2018-04-30T18:41:32.849Z,17.00
2018-04-30T18:43:59.249Z,17.10
2018-04-30T18:46:25.386Z,17.00
2018-04-30T18:48:51.925Z,16.90
2018-04-30T18:51:18.110Z,16.80
2018-04-30T18:53:45.010Z,16.60
2018-04-30T18:56:11.367Z,16.60
2018-04-30T18:58:37.561Z,16.50
2018-04-30T19:01:03.736Z,16.60
2018-04-30T19:03:29.868Z,16.50
2018-04-30T19:05:56.001Z,16.60
2018-04-30T19:08:22.104Z,16.40
2018-04-30T19:10:48.969Z,16.50
2018-04-30T19:13:15.093Z,16.40
2018-04-30T19:15:41.915Z,16.30
2018-04-30T19:18:08.016Z,16.30
2018-04-30T19:20:34.116Z,16.20
2018-04-30T19:23:00.236Z,16.20
2018-04-30T19:25:26.364Z,16.10
2018-04-30T19:27:52.460Z,16.10
2018-04-30T19:30:18.600Z,16.00
2018-04-30T19:32:44.695Z,16.00
2018-04-30T19:35:10.790Z,16.00
2018-04-30T19:37:36.903Z,15.90
2018-04-30T19:40:03.789Z,15.90
2018-04-30T19:42:29.926Z,15.90
2018-04-30T19:44:56.053Z,15.80
2018-04-30T19:47:22.159Z,15.90
2018-04-30T19:49:49.037Z,15.70
2018-04-30T19:52:15.120Z,15.70
2018-04-30T19:54:41.247Z,15.60
2018-04-30T19:57:07.390Z,15.50
2018-04-30T19:59:33.481Z,15.50
2018-04-30T20:02:00.350Z,15.40
2018-04-30T20:04:26.492Z,15.30
2018-04-30T20:06:52.710Z,15.40
2018-04-30T20:09:18.863Z,15.30
2018-04-30T20:11:45.096Z,15.30
2018-04-30T20:14:11.569Z,15.30
2018-04-30T20:16:37.694Z,15.40
2018-04-30T20:19:03.875Z,15.30
2018-04-30T20:21:30.139Z,15.20
2018-04-30T20:23:56.266Z,15.20
2018-04-30T20:26:22.415Z,15.10
2018-04-30T20:28:48.721Z,15.10
2018-04-30T20:31:14.939Z,15.00
2018-04-30T20:33:41.051Z,15.30
2018-04-30T20:36:08.014Z,15.20
2018-04-30T20:38:35.079Z,15.10
2018-04-30T20:41:01.166Z,15.10
2018-04-30T20:43:27.296Z,15.20
2018-04-30T20:45:53.419Z,15.10
2018-04-30T20:48:19.692Z,15.10
2018-04-30T20:50:46.058Z,15.10
2018-04-30T20:53:12.487Z,15.10
2018-04-30T20:55:39.792Z,14.90
2018-04-30T20:58:06.055Z,14.90
2018-04-30T21:00:32.325Z,14.80
2018-04-30T21:02:58.474Z,14.80
2018-04-30T21:05:24.557Z,14.80
2018-04-30T21:07:50.874Z,14.70
2018-04-30T21:10:18.029Z,14.70
2018-04-30T21:12:44.878Z,14.70
2018-04-30T21:15:11.378Z,14.60
2018-04-30T21:17:37.669Z,14.60
2018-04-30T21:20:03.892Z,14.60
2018-04-30T21:22:30.739Z,14.50
2018-04-30T21:24:56.912Z,14.40
2018-04-30T21:27:24.453Z,14.30
2018-04-30T21:29:50.651Z,14.30
2018-04-30T21:32:17.297Z,14.40
2018-04-30T21:34:43.649Z,14.40
2018-04-30T21:37:09.793Z,14.40
2018-04-30T21:39:35.999Z,14.40
2018-04-30T21:42:02.969Z,14.30
2018-04-30T21:44:29.207Z,14.30
2018-04-30T21:46:55.693Z,14.40
2018-04-30T21:49:22.246Z,14.40
2018-04-30T21:51:49.536Z,14.50
2018-04-30T21:54:15.708Z,14.50
2018-04-30T21:56:41.915Z,14.40
2018-04-30T21:59:08.361Z,14.30
2018-04-30T22:01:34.741Z,14.30
2018-04-30T22:04:01.161Z,14.30
2018-04-30T22:06:28.255Z,14.20
2018-04-30T22:08:54.637Z,14.10
2018-04-30T22:11:20.817Z,14.00
2018-04-30T22:13:48.072Z,13.90
2018-04-30T22:16:14.210Z,13.80
2018-04-30T22:18:40.320Z,13.70
2018-04-30T22:21:06.415Z,13.60
2018-04-30T22:23:32.531Z,13.50
2018-04-30T22:25:59.398Z,13.50
2018-04-30T22:28:26.303Z,13.40
2018-04-30T22:30:52.479Z,13.40
2018-04-30T22:33:18.666Z,13.40
2018-04-30T22:35:44.755Z,13.40
2018-04-30T22:38:11.810Z,13.40
2018-04-30T22:40:37.994Z,13.30
2018-04-30T22:43:04.094Z,13.40
2018-04-30T22:45:30.927Z,13.50
2018-04-30T22:47:57.010Z,13.40
2018-04-30T22:50:23.111Z,13.50
2018-04-30T22:52:49.203Z,13.40
2018-04-30T22:55:15.350Z,13.40
2018-04-30T22:57:41.434Z,13.30
2018-04-30T23:00:07.504Z,13.30
2018-04-30T23:02:33.616Z,13.30
2018-04-30T23:05:00.441Z,13.40
2018-04-30T23:07:26.559Z,13.30
2018-04-30T23:09:52.643Z,13.30
2018-04-30T23:12:19.499Z,13.30
2018-04-30T23:14:46.351Z,13.30
2018-04-30T23:17:13.166Z,13.30
2018-04-30T23:19:39.286Z,13.30
2018-04-30T23:22:05.379Z,13.30
2018-04-30T23:24:31.553Z,13.20
2018-04-30T23:26:58.750Z,13.20
2018-04-30T23:29:24.846Z,13.20
2018-04-30T23:31:50.959Z,13.10
2018-04-30T23:34:17.035Z,13.10
2018-04-30T23:36:43.131Z,13.00
2018-04-30T23:39:09.224Z,13.00
2018-04-30T23:41:35.327Z,12.90
2018-04-30T23:44:01.470Z,12.80
2018-04-30T23:46:27.546Z,12.80
2018-04-30T23:48:53.619Z,12.80
2018-04-30T23:51:19.715Z,12.80
2018-04-30T23:53:45.807Z,12.70
2018-04-30T23:56:12.666Z,12.80
2018-04-30T23:58:39.544Z,12.90
